Time;durP1;ratioP1;P1;durP2;ratioP2;P2;SDS_P1;SDS_P2;PMS_P1;PMS_P2;Temp;Humidity;BMP_temperature;BMP_pressure;BME280_temperature;BME280_humidity;BME280_pressure;Samples;Min_cycle;Max_cycle;Signal;HPM_P1;HPM_P2
2023/07/01 00:00:47;;;;;;;7.10;6.40;;;;;;;20.43;62.49;99561.16;107832;1253;60404;-82
2023/07/01 00:03:15;;;;;;;9.00;6.50;;;;;;;20.43;62.38;99562.39;107898;1253;73940;-81
2023/07/01 00:05:45;;;;;;;8.80;6.30;;;;;;;20.44;62.46;99563.36;108103;1253;72751;-82
2023/07/01 00:08:13;;;;;;;7.40;6.60;;;;;;;20.43;62.54;99561.46;108037;1257;72766;-81
2023/07/01 00:10:41;;;;;;;9.50;6.30;;;;;;;20.42;62.62;99564.46;108069;1253;61660;-82
2023/07/01 00:13:08;;;;;;;7.60;6.40;;;;;;;20.42;62.59;99568.33;107870;1253;60467;-82
2023/07/01 00:17:25;;;;;;;8.40;5.90;;;;;;;20.43;62.62;99568.61;104785;1293;601078;-81
2023/07/01 00:19:53;;;;;;;7.40;6.20;;;;;;;20.41;62.55;99572.04;107076;1268;61714;-80
2023/07/01 00:22:20;;;;;;;8.10;6.60;;;;;;;20.41;62.49;99574.91;107489;1260;59419;-83
2023/07/01 00:24:48;;;;;;;7.90;6.20;;;;;;;20.40;62.41;99573.42;107683;1262;71959;-81
2023/07/01 00:27:16;;;;;;;9.60;6.60;;;;;;;20.40;62.55;99576.73;107653;1258;72858;-80
2023/07/01 00:29:43;;;;;;;8.00;6.80;;;;;;;20.39;62.58;99575.02;107563;1260;71526;-81
2023/07/01 00:32:14;;;;;;;8.30;6.30;;;;;;;20.38;62.36;99574.05;107473;1258;240682;-82
2023/07/01 00:34:42;;;;;;;6.90;6.20;;;;;;;20.36;62.37;99574.70;108097;1253;60402;-80
2023/07/01 00:37:10;;;;;;;8.60;6.50;;;;;;;20.33;62.39;99578.19;108200;1256;71196;-81
2023/07/01 00:39:37;;;;;;;9.50;6.50;;;;;;;20.31;62.48;99575.50;108154;1253;72674;-80
2023/07/01 00:42:05;;;;;;;7.70;6.50;;;;;;;20.32;62.52;99576.90;108053;1252;72666;-81
2023/07/01 00:44:33;;;;;;;6.60;5.90;;;;;;;20.32;62.42;99576.83;108082;1253;60405;-82
2023/07/01 00:47:02;;;;;;;6.20;5.60;;;;;;;20.34;62.48;99579.55;108009;1253;60146;-82
2023/07/01 00:49:30;;;;;;;8.90;6.90;;;;;;;20.36;62.47;99579.02;108102;1254;73133;-82
2023/07/01 00:51:58;;;;;;;7.90;6.50;;;;;;;20.35;62.48;99574.59;108023;1257;71277;-81
2023/07/01 00:54:25;;;;;;;8.30;6.40;;;;;;;20.34;62.54;99571.56;107970;1254;71410;-81
2023/07/01 00:56:55;;;;;;;7.00;6.30;;;;;;;20.37;62.55;99572.41;107768;1254;62258;-80
2023/07/01 00:59:23;;;;;;;8.30;6.70;;;;;;;20.39;62.57;99572.46;107842;1256;59628;-81
2023/07/01 01:01:50;;;;;;;9.60;6.30;;;;;;;20.38;62.54;99571.89;107922;1255;71896;-81
2023/07/01 01:04:31;;;;;;;8.20;6.50;;;;;;;20.35;62.67;99572.80;108000;1254;72039;-81
2023/07/01 01:07:12;;;;;;;9.80;6.70;;;;;;;20.33;62.61;99571.11;108173;1254;71195;-81
2023/07/01 01:09:46;;;;;;;6.80;6.10;;;;;;;20.32;62.57;99568.45;108113;1254;60394;-81
2023/07/01 01:12:15;;;;;;;6.90;6.20;;;;;;;20.30;62.60;99569.73;108059;1255;59607;-81
2023/07/01 01:14:42;;;;;;;8.40;6.70;;;;;;;20.27;62.58;99566.33;108100;1254;71801;-81
2023/07/01 01:17:13;;;;;;;8.00;6.30;;;;;;;20.25;62.61;99568.13;107768;1255;71626;-80
2023/07/01 01:19:50;;;;;;;7.90;6.70;;;;;;;20.21;62.72;99572.66;108098;1254;72701;-81
2023/07/01 01:22:23;;;;;;;8.60;6.60;;;;;;;20.17;62.87;99576.34;107869;1254;60461;-81
2023/07/01 01:24:54;;;;;;;10.00;6.70;;;;;;;20.12;62.88;99575.50;108078;1257;60073;-81
2023/07/01 01:27:28;;;;;;;7.80;6.10;;;;;;;20.08;63.04;99574.64;108037;1254;75240;-81
2023/07/01 01:29:56;;;;;;;7.10;6.30;;;;;;;20.05;63.08;99574.29;108000;1254;72745;-81
2023/07/01 01:32:24;;;;;;;7.30;6.30;;;;;;;20.00;63.24;99574.61;108140;1254;74857;-81
2023/07/01 01:34:51;;;;;;;7.80;6.90;;;;;;;19.94;63.12;99574.77;108135;1254;61715;-83
2023/07/01 01:37:26;;;;;;;9.20;6.60;;;;;;;19.89;63.42;99571.52;108089;1254;60081;-82
2023/07/01 01:39:56;;;;;;;7.70;7.00;;;;;;;19.82;63.45;99569.56;108130;1256;71124;-81
2023/07/01 01:42:27;;;;;;;8.60;6.60;;;;;;;19.78;63.57;99565.23;108091;1256;71910;-81
2023/07/01 01:44:55;;;;;;;8.50;6.60;;;;;;;19.71;63.64;99566.65;108090;1255;71825;-82
2023/07/01 01:47:25;;;;;;;9.30;7.00;;;;;;;19.60;63.86;99568.16;107940;1256;61768;-82
2023/07/01 01:49:55;;;;;;;8.20;6.40;;;;;;;19.48;64.11;99564.55;107920;1256;59598;-81
2023/07/01 01:52:23;;;;;;;8.70;6.70;;;;;;;19.40;64.34;99562.84;107963;1254;72983;-81
2023/07/01 01:54:52;;;;;;;8.80;6.80;;;;;;;19.37;64.61;99566.38;108168;1254;72729;-81
2023/07/01 01:57:20;;;;;;;8.10;6.70;;;;;;;19.34;64.74;99565.96;108172;1256;71391;-80
2023/07/01 01:59:47;;;;;;;7.80;6.40;;;;;;;19.31;64.98;99568.59;108052;1262;60876;-80
2023/07/01 02:02:15;;;;;;;7.70;6.90;;;;;;;19.26;65.21;99568.52;107967;1255;59321;-81
2023/07/01 02:04:43;;;;;;;8.20;7.20;;;;;;;19.23;65.50;99564.55;108241;1256;74129;-81
2023/07/01 02:07:10;;;;;;;9.60;7.20;;;;;;;19.26;65.78;99570.44;108055;1255;71546;-81
2023/07/01 02:09:38;;;;;;;8.90;8.00;;;;;;;19.26;65.77;99567.76;108113;1254;71833;-81
2023/07/01 02:12:06;;;;;;;8.50;7.60;;;;;;;19.26;65.88;99570.69;107965;1256;62164;-81
2023/07/01 02:14:34;;;;;;;8.30;7.40;;;;;;;19.26;66.13;99573.71;108160;1254;60092;-82
2023/07/01 02:17:01;;;;;;;8.80;7.20;;;;;;;19.28;66.14;99579.48;107918;1254;73053;-81
2023/07/01 02:19:29;;;;;;;7.50;6.50;;;;;;;19.28;66.19;99581.67;108052;1256;70140;-81
2023/07/01 02:21:57;;;;;;;6.80;6.10;;;;;;;19.26;66.42;99588.16;107967;1254;72918;-81
2023/07/01 02:24:24;;;;;;;8.50;6.80;;;;;;;19.24;66.58;99594.52;108170;1254;63806;-81
2023/07/01 02:26:52;;;;;;;8.40;6.80;;;;;;;19.21;66.75;99597.77;107960;1255;58988;-82
2023/07/01 02:29:20;;;;;;;9.00;8.10;;;;;;;19.18;67.04;99601.40;108128;1254;73452;-82
2023/07/01 02:31:48;;;;;;;9.20;8.30;;;;;;;19.16;67.24;99598.91;107974;1256;73004;-82
2023/07/01 02:34:15;;;;;;;9.50;8.50;;;;;;;19.14;67.40;99594.82;108162;1257;73316;-83
2023/07/01 02:36:43;;;;;;;11.30;8.60;;;;;;;19.15;67.33;99595.54;107922;1254;60627;-81
2023/07/01 02:39:11;;;;;;;8.90;7.90;;;;;;;19.18;67.51;99597.13;108055;1255;59653;-81
2023/07/01 02:41:38;;;;;;;8.20;7.40;;;;;;;19.25;67.34;99601.96;107996;1255;73051;-82
2023/07/01 02:44:06;;;;;;;7.20;6.50;;;;;;;19.31;67.40;99607.20;108072;1256;72764;-81
2023/07/01 02:46:33;;;;;;;8.20;6.80;;;;;;;19.37;67.12;99608.39;108097;1256;72716;-82
2023/07/01 02:49:01;;;;;;;7.40;6.50;;;;;;;19.42;67.00;99606.23;108078;1254;60379;-82
2023/07/01 02:51:29;;;;;;;8.50;6.60;;;;;;;19.47;66.90;99610.20;107918;1256;59410;-82
2023/07/01 02:53:57;;;;;;;7.70;6.90;;;;;;;19.55;66.80;99612.75;107998;1256;71943;-82
2023/07/01 02:56:24;;;;;;;8.60;6.80;;;;;;;19.61;66.67;99613.79;108084;1256;71036;-82
2023/07/01 02:58:52;;;;;;;7.90;6.90;;;;;;;19.69;66.35;99609.41;108159;1254;71364;-82
2023/07/01 03:01:19;;;;;;;8.50;6.30;;;;;;;19.74;66.01;99613.13;108098;1254;61685;-81
2023/07/01 03:03:49;;;;;;;8.10;6.80;;;;;;;19.80;65.68;99608.59;108122;1254;59492;-81
2023/07/01 03:06:17;;;;;;;9.50;6.40;;;;;;;19.87;65.64;99610.35;107895;1254;71076;-81
2023/07/01 03:08:45;;;;;;;7.80;6.10;;;;;;;19.96;65.50;99609.75;108006;1254;72850;-82
2023/07/01 03:11:12;;;;;;;9.10;6.70;;;;;;;20.03;65.42;99611.89;107882;1256;72693;-82
2023/07/01 03:13:40;;;;;;;7.20;6.50;;;;;;;20.13;65.23;99610.31;108044;1254;61106;-82
2023/07/01 03:16:09;;;;;;;8.40;6.40;;;;;;;20.24;65.15;99614.80;107946;1256;60176;-82
2023/07/01 03:18:36;;;;;;;10.40;6.50;;;;;;;20.34;64.78;99617.52;108025;1255;72003;-82
2023/07/01 03:21:04;;;;;;;8.50;6.30;;;;;;;20.45;64.56;99619.73;108048;1259;71584;-82
2023/07/01 03:23:32;;;;;;;8.50;6.70;;;;;;;20.55;64.08;99614.29;107898;1256;72517;-82
2023/07/01 03:25:59;;;;;;;10.10;7.10;;;;;;;20.60;63.82;99618.46;107974;1254;61617;-81
2023/07/01 03:28:27;;;;;;;7.50;6.50;;;;;;;20.65;63.52;99618.11;108137;1256;59989;-82
2023/07/01 03:30:55;;;;;;;7.70;6.50;;;;;;;20.71;63.39;99620.13;108178;1255;72371;-82
2023/07/01 03:33:22;;;;;;;8.20;6.40;;;;;;;20.75;63.20;99618.70;108054;1254;70431;-81
2023/07/01 03:35:50;;;;;;;7.30;6.10;;;;;;;20.84;63.12;99615.15;107936;1256;72875;-82
2023/07/01 03:38:18;;;;;;;7.20;6.00;;;;;;;20.92;63.01;99615.72;108122;1255;60433;-82
2023/07/01 03:40:47;;;;;;;8.40;6.20;;;;;;;21.00;62.76;99613.84;108112;1256;59442;-82
2023/07/01 03:43:15;;;;;;;6.60;5.80;;;;;;;21.04;62.34;99617.81;108010;1259;73689;-82
2023/07/01 03:45:43;;;;;;;6.70;6.00;;;;;;;21.06;62.04;99615.14;108078;1256;71624;-82
2023/07/01 03:48:11;;;;;;;7.80;6.00;;;;;;;21.14;62.00;99619.90;108038;1256;71473;-82
2023/07/01 03:50:40;;;;;;;7.00;6.30;;;;;;;21.22;61.85;99620.80;108044;1255;61661;-81
2023/07/01 03:53:08;;;;;;;6.70;6.00;;;;;;;21.30;61.71;99616.81;108135;1256;59640;-81
2023/07/01 03:55:36;;;;;;;7.20;6.00;;;;;;;21.41;61.37;99612.36;108178;1256;72202;-81
2023/07/01 03:58:04;;;;;;;7.60;6.50;;;;;;;21.53;61.18;99615.35;107902;1256;72918;-81
2023/07/01 04:00:32;;;;;;;7.00;6.20;;;;;;;21.68;60.84;99617.46;108054;1254;71530;-81
2023/07/01 04:03:05;;;;;;;7.50;6.10;;;;;;;21.81;60.48;99614.89;108055;1254;60762;-81
2023/07/01 04:05:34;;;;;;;6.60;5.90;;;;;;;21.92;59.67;99614.64;108001;1256;59587;-81
2023/07/01 04:08:02;;;;;;;8.20;6.00;;;;;;;22.03;59.43;99615.89;107996;1256;73042;-81
2023/07/01 04:10:29;;;;;;;7.30;6.60;;;;;;;22.10;58.86;99617.45;108007;1258;71965;-82
2023/07/01 04:12:58;;;;;;;7.10;6.40;;;;;;;22.11;58.51;99620.90;108116;1254;71480;-82
2023/07/01 04:15:27;;;;;;;7.30;6.10;;;;;;;22.14;58.44;99617.38;108148;1256;60505;-81
2023/07/01 04:17:54;;;;;;;7.70;6.00;;;;;;;22.20;58.44;99622.27;108056;1255;59421;-81
2023/07/01 04:20:22;;;;;;;7.40;5.90;;;;;;;22.22;58.21;99624.49;108103;1256;73163;-81
2023/07/01 04:22:50;;;;;;;8.30;6.20;;;;;;;22.21;57.88;99632.08;108085;1255;71732;-82
2023/07/01 04:25:17;;;;;;;6.40;5.50;;;;;;;22.21;57.85;99633.08;107875;1256;72646;-81
2023/07/01 04:27:45;;;;;;;6.20;5.60;;;;;;;22.23;57.73;99629.78;108073;1254;60421;-81
2023/07/01 04:30:14;;;;;;;7.60;6.20;;;;;;;22.23;57.40;99635.08;108150;1257;59960;-82
2023/07/01 04:32:42;;;;;;;7.90;6.00;;;;;;;22.27;57.30;99635.83;108095;1256;73877;-81
2023/07/01 04:35:09;;;;;;;6.10;5.30;;;;;;;22.32;57.71;99631.98;108103;1256;72922;-81
2023/07/01 04:37:37;;;;;;;6.60;5.80;;;;;;;22.40;57.84;99628.73;107978;1256;73128;-81
2023/07/01 04:40:06;;;;;;;6.30;5.70;;;;;;;22.50;57.55;99626.97;108002;1256;60563;-81
2023/07/01 04:42:34;;;;;;;6.40;5.70;;;;;;;22.59;57.35;99627.63;108023;1259;60449;-81
2023/07/01 04:45:02;;;;;;;6.40;5.60;;;;;;;22.67;56.93;99630.94;108040;1256;72766;-81
2023/07/01 04:47:29;;;;;;;6.30;5.70;;;;;;;22.74;56.98;99632.17;108103;1255;72811;-81
2023/07/01 04:49:57;;;;;;;7.00;5.70;;;;;;;22.84;56.53;99634.36;108163;1254;71087;-81
2023/07/01 04:52:25;;;;;;;7.30;5.80;;;;;;;22.92;56.15;99634.05;108157;1254;60451;-82
2023/07/01 04:54:53;;;;;;;6.60;6.00;;;;;;;23.01;55.79;99631.95;108122;1256;60270;-82
2023/07/01 04:57:20;;;;;;;9.20;6.20;;;;;;;23.10;55.82;99632.98;108201;1257;73927;-82
2023/07/01 04:59:48;;;;;;;7.60;5.70;;;;;;;23.21;55.63;99636.73;108165;1255;72347;-82
2023/07/01 05:02:16;;;;;;;7.70;6.10;;;;;;;23.29;55.03;99635.70;107981;1255;71178;-82
2023/07/01 05:04:44;;;;;;;7.40;6.40;;;;;;;23.36;54.88;99633.86;107969;1256;60485;-81
2023/07/01 05:07:12;;;;;;;6.50;5.80;;;;;;;23.47;54.68;99632.95;108161;1256;60122;-81
2023/07/01 05:09:40;;;;;;;6.80;5.90;;;;;;;23.61;54.53;99631.90;108039;1256;73841;-81
2023/07/01 05:12:08;;;;;;;6.00;5.40;;;;;;;23.70;54.24;99634.46;108081;1256;71520;-83
2023/07/01 05:14:35;;;;;;;7.10;6.30;;;;;;;23.77;53.86;99638.70;108056;1254;72698;-81
2023/07/01 05:17:03;;;;;;;7.10;5.50;;;;;;;23.82;53.83;99637.45;107936;1255;61681;-82
2023/07/01 05:19:32;;;;;;;6.50;5.80;;;;;;;23.91;53.87;99634.85;108021;1254;60443;-81
2023/07/01 05:21:59;;;;;;;7.40;6.00;;;;;;;24.01;53.50;99634.83;107883;1256;73325;-81
2023/07/01 05:24:27;;;;;;;9.60;6.10;;;;;;;24.14;53.06;99634.98;107911;1256;72735;-82
2023/07/01 05:26:55;;;;;;;6.20;5.30;;;;;;;24.25;52.67;99640.44;108111;1254;72691;-82
2023/07/01 05:29:24;;;;;;;6.70;5.40;;;;;;;24.34;52.18;99642.26;108062;1255;60310;-82
2023/07/01 05:31:52;;;;;;;7.70;5.40;;;;;;;24.33;52.03;99638.02;108027;1256;60279;-82
2023/07/01 05:34:20;;;;;;;6.30;5.70;;;;;;;24.36;52.14;99638.37;108071;1256;73891;-81
2023/07/01 05:36:47;;;;;;;8.00;5.60;;;;;;;24.41;52.10;99645.92;108062;1259;72502;-81
2023/07/01 05:39:16;;;;;;;7.30;5.70;;;;;;;24.54;52.12;99645.40;107942;1256;71420;-82
2023/07/01 05:41:43;;;;;;;7.20;5.50;;;;;;;24.63;51.31;99646.98;108118;1254;60434;-81
2023/07/01 05:44:11;;;;;;;6.00;5.40;;;;;;;24.70;51.02;99643.54;108076;1256;60406;-80
2023/07/01 05:46:40;;;;;;;6.10;5.10;;;;;;;24.77;50.99;99643.52;108091;1255;73878;-84
2023/07/01 05:49:08;;;;;;;6.00;5.40;;;;;;;24.86;51.02;99645.80;108116;1256;72449;-80
2023/07/01 05:51:36;;;;;;;6.40;5.60;;;;;;;24.98;50.77;99647.33;108026;1259;73163;-80
2023/07/01 05:54:04;;;;;;;6.40;5.70;;;;;;;25.12;50.68;99649.81;107964;1256;60361;-83
2023/07/01 05:56:32;;;;;;;6.20;5.50;;;;;;;25.25;50.59;99643.91;107967;1255;60349;-81
2023/07/01 05:58:59;;;;;;;6.30;5.70;;;;;;;25.35;50.62;99643.84;107961;1256;73914;-81
2023/07/01 06:01:30;;;;;;;7.10;5.30;;;;;;;25.45;50.51;99644.07;108084;1256;72478;-82
2023/07/01 06:03:57;;;;;;;6.40;5.30;;;;;;;25.57;50.35;99644.69;107866;1257;72645;-81
2023/07/01 06:06:25;;;;;;;6.20;5.20;;;;;;;25.72;49.94;99643.77;107920;1256;60336;-82
2023/07/01 06:08:53;;;;;;;6.20;5.60;;;;;;;25.87;49.34;99643.35;107932;1256;60541;-82
2023/07/01 06:11:21;;;;;;;7.30;5.00;;;;;;;26.00;48.80;99639.98;107979;1260;73889;-81
2023/07/01 06:13:50;;;;;;;6.10;5.10;;;;;;;26.02;47.64;99639.84;108180;1254;71436;-82
2023/07/01 06:16:18;;;;;;;6.20;5.00;;;;;;;26.01;47.77;99637.80;108093;1255;71880;-82
2023/07/01 06:18:46;;;;;;;6.80;5.60;;;;;;;26.05;48.05;99642.19;108059;1256;60489;-81
2023/07/01 06:21:13;;;;;;;6.40;5.30;;;;;;;26.12;48.03;99640.98;107960;1256;60620;-82
2023/07/01 06:23:41;;;;;;;6.50;5.40;;;;;;;26.24;47.83;99645.17;108002;1256;72558;-82
2023/07/01 06:26:09;;;;;;;5.40;4.50;;;;;;;26.38;47.92;99642.48;107940;1256;75346;-82
2023/07/01 06:28:36;;;;;;;5.20;4.40;;;;;;;26.47;46.97;99645.81;107980;1256;71184;-83
2023/07/01 06:31:04;;;;;;;5.00;4.20;;;;;;;26.54;47.27;99643.42;108152;1254;59757;-82
2023/07/01 06:33:37;;;;;;;5.10;4.60;;;;;;;26.61;46.10;99642.02;108160;1256;60348;-81
2023/07/01 06:36:05;;;;;;;5.60;4.70;;;;;;;26.61;46.04;99639.14;107941;1256;73913;-82
2023/07/01 06:38:34;;;;;;;5.70;4.60;;;;;;;26.66;45.83;99641.82;108056;1256;72821;-83
2023/07/01 06:41:02;;;;;;;5.60;4.50;;;;;;;26.70;45.36;99639.86;108037;1256;72699;-81
2023/07/01 06:43:29;;;;;;;6.70;4.70;;;;;;;26.75;45.91;99641.45;107994;1256;60400;-81
2023/07/01 06:45:59;;;;;;;5.00;4.40;;;;;;;26.85;45.51;99636.14;107952;1256;59219;-82
2023/07/01 06:48:27;;;;;;;7.60;5.10;;;;;;;26.99;45.39;99632.95;108044;1256;73889;-82
2023/07/01 06:50:54;;;;;;;5.30;4.70;;;;;;;27.12;45.15;99630.99;108007;1257;72737;-82
2023/07/01 06:53:22;;;;;;;6.90;4.80;;;;;;;27.22;45.15;99633.13;108100;1254;73770;-82
2023/07/01 06:55:50;;;;;;;8.60;4.90;;;;;;;27.32;45.30;99631.41;108054;1256;60397;-82
2023/07/01 06:58:17;;;;;;;5.50;4.50;;;;;;;27.43;44.91;99625.75;108119;1256;60450;-83
2023/07/01 07:00:45;;;;;;;5.10;4.10;;;;;;;27.50;43.96;99630.91;108053;1256;71823;-82
2023/07/01 07:03:13;;;;;;;5.80;4.50;;;;;;;27.50;43.78;99633.73;108071;1256;71717;-82
2023/07/01 07:05:41;;;;;;;5.60;4.20;;;;;;;27.55;43.63;99633.42;108048;1256;72888;-82
2023/07/01 07:08:09;;;;;;;5.00;3.80;;;;;;;27.62;43.90;99629.73;107968;1256;60457;-82
2023/07/01 07:10:37;;;;;;;4.50;3.90;;;;;;;27.68;42.95;99628.77;108006;1256;60345;-82
2023/07/01 07:13:08;;;;;;;5.30;3.90;;;;;;;27.75;42.70;99627.81;108153;1257;72561;-82
2023/07/01 07:15:36;;;;;;;4.30;3.70;;;;;;;27.88;42.82;99631.48;108162;1256;72739;-82
2023/07/01 07:18:07;;;;;;;5.60;4.00;;;;;;;27.96;41.91;99630.20;107985;1256;63703;-82
2023/07/01 07:20:36;;;;;;;;;;;;;;;27.97;40.70;99633.49;107931;1256;60538;-82
2023/07/01 07:23:05;;;;;;;5.50;3.40;;;;;;;27.96;40.51;99630.83;107986;1256;59380;-83
2023/07/01 07:25:33;;;;;;;6.00;3.60;;;;;;;28.01;40.63;99626.26;108029;1256;73951;-82
2023/07/01 07:28:02;;;;;;;4.80;3.60;;;;;;;28.05;39.92;99625.08;108059;1256;63055;-82
2023/07/01 07:30:29;;;;;;;4.70;3.60;;;;;;;28.06;38.67;99625.54;108014;1256;63767;-82
2023/07/01 07:32:57;;;;;;;4.40;3.30;;;;;;;28.05;38.92;99625.94;108017;1259;60404;-81
2023/07/01 07:35:25;;;;;;;4.30;3.50;;;;;;;28.16;39.48;99625.98;108069;1256;60537;-83
2023/07/01 07:37:52;;;;;;;4.40;3.40;;;;;;;28.30;39.31;99624.11;108088;1255;63658;-83
2023/07/01 07:40:20;;;;;;;5.20;3.60;;;;;;;28.46;39.19;99627.59;108061;1256;72752;-82
2023/07/01 07:42:52;;;;;;;4.30;3.10;;;;;;;28.56;38.49;99625.25;108049;1254;63803;-82
2023/07/01 07:45:21;;;;;;;4.40;3.30;;;;;;;28.59;37.79;99626.02;108058;1255;60336;-82
2023/07/01 08:04:09;;;;;;;6.90;4.20;;;;;;;27.17;39.50;99623.62;105339;1286;601225;-82
2023/07/01 08:06:37;;;;;;;4.90;3.40;;;;;;;28.26;37.96;99618.72;107435;1267;60067;-82
2023/07/01 08:09:05;;;;;;;9.80;5.10;;;;;;;28.52;36.96;99615.77;107387;1263;60323;-81
2023/07/01 08:11:32;;;;;;;11.70;4.30;;;;;;;28.69;36.92;99612.77;107371;1265;63361;-82
2023/07/01 08:14:00;;;;;;;5.30;3.60;;;;;;;28.87;36.27;99609.27;107378;1264;62505;-83
2023/07/01 08:16:28;;;;;;;8.80;6.00;;;;;;;28.98;36.33;99609.52;107526;1263;63717;-80
2023/07/01 08:18:55;;;;;;;6.30;3.90;;;;;;;29.04;36.58;99618.04;107406;1264;205580;-82
2023/07/01 08:21:23;;;;;;;4.40;3.30;;;;;;;29.14;36.32;99618.19;107514;1263;59391;-82
2023/07/01 08:23:51;;;;;;;4.30;3.20;;;;;;;29.24;35.61;99620.38;107523;1263;71985;-83
2023/07/01 08:26:19;;;;;;;3.90;2.70;;;;;;;29.27;34.98;99619.02;107575;1264;62553;-83
2023/07/01 08:28:46;;;;;;;5.00;3.60;;;;;;;29.23;35.33;99622.98;107482;1262;74015;-82
2023/07/01 08:31:15;;;;;;;5.60;3.00;;;;;;;29.15;34.48;99621.17;107602;1264;59959;-82
2023/07/01 08:33:42;;;;;;;8.20;2.90;;;;;;;29.16;34.66;99619.66;107535;1262;59613;-81
2023/07/01 08:36:10;;;;;;;12.60;7.30;;;;;;;29.21;34.55;99616.17;107476;1263;64216;-82
2023/07/01 08:38:38;;;;;;;8.20;5.40;;;;;;;29.27;34.80;99616.67;107505;1269;63953;-83
2023/07/01 08:41:06;;;;;;;5.30;3.60;;;;;;;29.36;34.67;99616.27;107456;1263;63784;-82
2023/07/01 08:43:33;;;;;;;3.80;2.80;;;;;;;29.47;33.49;99616.00;107396;1262;59577;-83
2023/07/01 08:46:05;;;;;;;6.40;4.20;;;;;;;29.52;33.45;99615.25;107479;1262;59160;-82
2023/07/01 09:24:55;;;;;;;4.40;3.10;;;;;;;28.09;36.26;99604.16;104952;1292;614899;-82
2023/07/01 09:27:23;;;;;;;3.60;2.90;;;;;;;29.23;34.26;99599.56;107389;1265;59360;-82
2023/07/01 09:29:52;;;;;;;4.70;2.60;;;;;;;29.53;33.46;99598.73;107385;1266;59400;-81
2023/07/01 09:32:29;;;;;;;4.50;2.70;;;;;;;29.59;32.89;99596.48;107469;1267;63710;-83
2023/07/01 09:34:57;;;;;;;3.30;2.30;;;;;;;29.54;33.26;99599.59;107478;1267;64104;-83
2023/07/01 09:37:29;;;;;;;3.80;2.40;;;;;;;29.42;33.48;99601.36;107415;1260;223371;-82
2023/07/01 09:40:06;;;;;;;4.70;2.90;;;;;;;29.33;33.87;99601.45;107514;1260;60275;-82
2023/07/01 09:42:35;;;;;;;3.70;2.80;;;;;;;29.25;32.87;99598.69;107514;1260;59240;-82
2023/07/01 09:45:07;;;;;;;3.40;2.60;;;;;;;29.16;32.53;99595.63;107530;1262;63644;-82
2023/07/01 09:47:37;;;;;;;3.50;2.30;;;;;;;29.17;32.87;99589.10;107475;1261;63142;-82
2023/07/01 09:50:05;;;;;;;7.90;3.10;;;;;;;29.31;32.41;99588.48;107435;1263;64057;-82
2023/07/01 09:52:36;;;;;;;3.90;2.60;;;;;;;29.47;32.18;99586.13;107568;1262;59535;-83
2023/07/01 09:55:03;;;;;;;3.70;2.40;;;;;;;29.65;32.65;99589.19;107387;1263;59733;-81
2023/07/01 09:57:30;;;;;;;3.70;2.60;;;;;;;29.81;32.44;99585.95;107727;1263;63062;-82
2023/07/01 09:59:57;;;;;;;3.90;2.40;;;;;;;29.92;32.65;99590.06;107590;1263;63921;-82
2023/07/01 10:02:26;;;;;;;7.50;2.70;;;;;;;30.01;31.84;99588.39;107555;1263;64066;-83
2023/07/01 10:04:53;;;;;;;10.00;3.10;;;;;;;30.16;31.58;99579.63;107545;1262;59626;-84
2023/07/01 10:07:20;;;;;;;5.00;2.50;;;;;;;30.31;30.64;99579.75;107547;1263;59631;-83
2023/07/01 10:09:46;;;;;;;4.10;2.30;;;;;;;30.41;30.62;99581.81;107562;1264;64234;-82
2023/07/01 10:12:16;;;;;;;4.30;2.50;;;;;;;30.47;31.46;99581.81;107540;1262;63929;-82
2023/07/01 10:14:43;;;;;;;5.00;2.70;;;;;;;30.48;31.77;99582.42;107567;1262;63768;-84
2023/07/01 10:17:10;;;;;;;4.20;2.40;;;;;;;30.41;31.31;99584.42;107485;1262;59593;-82
2023/07/01 10:19:39;;;;;;;5.90;2.50;;;;;;;30.23;31.21;99577.66;107533;1265;59615;-82
2023/07/01 10:22:27;;;;;;;3.80;2.20;;;;;;;30.12;31.56;99577.78;107475;1263;64248;-83
2023/07/01 10:25:06;;;;;;;5.00;2.50;;;;;;;30.21;31.72;99567.85;107600;1263;62643;-83
2023/07/01 10:27:40;;;;;;;3.60;2.30;;;;;;;30.43;31.37;99566.44;107445;1263;64135;-82
2023/07/01 10:30:09;;;;;;;4.40;2.70;;;;;;;30.61;31.54;99569.00;107561;1263;59803;-83
2023/07/01 10:32:36;;;;;;;6.10;2.40;;;;;;;30.68;31.76;99573.61;107650;1263;59551;-83
2023/07/01 10:35:05;;;;;;;3.50;2.30;;;;;;;30.67;31.61;99570.65;107603;1262;64165;-81
2023/07/01 10:37:33;;;;;;;6.50;4.30;;;;;;;30.71;31.56;99564.84;107556;1263;65200;-83
2023/07/01 10:40:07;;;;;;;4.70;2.70;;;;;;;30.77;31.37;99564.90;107550;1263;64083;-82
2023/07/01 10:42:36;;;;;;;4.70;2.50;;;;;;;30.90;31.29;99561.16;107562;1263;59730;-82
2023/07/01 10:45:15;;;;;;;3.50;2.30;;;;;;;31.02;30.97;99557.81;107519;1267;59586;-83
2023/07/01 10:48:03;;;;;;;4.00;2.40;;;;;;;31.05;30.68;99557.05;107587;1263;64462;-81
2023/07/01 10:50:30;;;;;;;10.10;6.90;;;;;;;31.06;30.60;99558.21;107619;1262;64937;-82
2023/07/01 10:52:57;;;;;;;6.50;4.20;;;;;;;30.99;30.74;99563.84;107574;1264;63938;-82
2023/07/01 10:55:44;;;;;;;15.00;9.70;;;;;;;30.88;31.03;99567.20;107568;1262;59032;-81
2023/07/01 10:58:27;;;;;;;6.70;3.20;;;;;;;30.88;31.01;99561.04;107626;1263;59825;-82
2023/07/01 11:00:54;;;;;;;;;;;;;;;30.92;30.64;99562.08;107634;1261;63040;-83
2023/07/01 11:03:34;;;;;;;4.50;3.40;;;;;;;30.94;30.65;99557.31;107641;1263;64669;-81
2023/07/01 11:06:06;;;;;;;3.40;2.30;;;;;;;30.93;30.99;99554.18;107658;1263;62674;-81
2023/07/01 11:08:50;;;;;;;3.70;2.20;;;;;;;30.95;30.82;99554.30;107534;1262;59048;-83
2023/07/01 11:11:27;;;;;;;5.50;3.00;;;;;;;31.00;30.80;99555.88;107602;1262;60068;-83
2023/07/01 11:30:45;;;;;;;4.00;2.10;;;;;;;30.21;32.46;99547.81;105433;1285;606559;-83
2023/07/01 11:33:12;;;;;;;4.20;3.40;;;;;;;31.28;30.53;99539.86;107291;1267;126877;-82
2023/07/01 11:35:50;;;;;;;16.80;10.90;;;;;;;31.23;31.08;99544.21;107601;1260;59436;-82
2023/07/01 11:38:26;;;;;;;4.60;3.00;;;;;;;31.33;30.90;99544.73;107597;1260;63544;-83
2023/07/01 11:40:53;;;;;;;4.10;2.90;;;;;;;31.51;30.60;99542.52;107667;1260;64037;-82
2023/07/01 11:43:21;;;;;;;4.50;2.70;;;;;;;31.70;29.91;99537.01;107620;1262;63894;-82
2023/07/01 11:45:50;;;;;;;6.60;3.00;;;;;;;31.87;29.78;99533.12;107577;1262;59506;-82
2023/07/01 11:48:29;;;;;;;5.40;2.80;;;;;;;32.03;29.17;99530.91;107592;1260;59498;-82
2023/07/01 11:50:58;;;;;;;5.30;2.60;;;;;;;32.07;28.80;99529.80;107633;1260;63744;-82
2023/07/01 11:53:29;;;;;;;;;;;;;;;32.05;28.87;99526.99;107596;1260;64160;-82
2023/07/01 11:55:58;;;;;;;2.90;2.20;;;;;;;32.09;29.38;99527.05;107498;1260;64123;-82
2023/07/01 11:58:33;;;;;;;5.90;3.10;;;;;;;32.15;29.03;99525.66;107527;1261;59660;-81
2023/07/01 12:01:01;;;;;;;5.10;2.90;;;;;;;32.13;29.08;99523.27;107550;1263;59522;-84
2023/07/01 12:03:32;;;;;;;3.60;2.60;;;;;;;32.03;29.34;99528.23;107532;1266;64216;-82
2023/07/01 12:05:59;;;;;;;4.40;2.40;;;;;;;31.87;29.63;99530.42;107529;1263;64488;-82
2023/07/01 12:08:51;;;;;;;8.40;3.20;;;;;;;31.62;30.37;99528.91;107543;1263;72733;-83
2023/07/01 12:11:47;;;;;;;3.60;2.70;;;;;;;31.40;30.56;99526.25;107539;1263;59559;-83
2023/07/01 12:14:18;;;;;;;6.00;2.40;;;;;;;31.31;30.73;99526.32;108011;1256;59227;-82
2023/07/01 12:16:49;;;;;;;20.80;4.80;;;;;;;31.28;30.86;99525.73;108170;1254;64288;-83
2023/07/01 12:19:17;;;;;;;4.10;2.30;;;;;;;31.32;30.52;99527.71;108142;1254;64123;-81
2023/07/01 12:21:44;;;;;;;4.10;2.30;;;;;;;31.26;30.16;99526.64;108162;1254;63478;-83
2023/07/01 12:24:26;;;;;;;5.10;2.60;;;;;;;31.24;29.62;99530.48;108142;1254;59616;-82
2023/07/01 12:26:56;;;;;;;3.20;2.40;;;;;;;31.22;28.89;99522.84;108130;1254;59500;-81
2023/07/01 12:29:23;;;;;;;4.90;2.20;;;;;;;31.24;29.38;99521.16;108149;1255;64266;-83
2023/07/01 12:31:53;;;;;;;7.70;2.60;;;;;;;31.31;29.09;99519.94;108148;1256;64976;-82
2023/07/01 12:34:21;;;;;;;7.20;2.90;;;;;;;31.39;29.25;99513.90;108138;1256;63852;-80
2023/07/01 12:36:48;;;;;;;5.80;2.60;;;;;;;31.43;28.61;99510.90;108174;1256;59032;-82
2023/07/01 12:39:18;;;;;;;6.90;2.80;;;;;;;31.42;28.80;99518.16;108407;1254;59325;-83
2023/07/01 12:41:50;;;;;;;6.90;2.60;;;;;;;31.31;28.83;99514.66;108540;1254;63066;-82
2023/07/01 12:44:17;;;;;;;3.10;2.30;;;;;;;31.24;29.23;99514.45;108115;1255;62895;-82